Time;durP1;ratioP1;P1;durP2;ratioP2;P2;SDS_P1;SDS_P2;PMS_P1;PMS_P2;Temp;Humidity;BMP_temperature;BMP_pressure;BME280_temperature;BME280_humidity;BME280_pressure;Samples;Min_cycle;Max_cycle;Signal;HPM_P1;HPM_P2
2022/07/15 00:01:36;;;;;;;;;;;;;;;;;;5094535;28;20322;-64
2022/07/15 00:04:02;;;;;;;;;;;;;;;;;;5094739;28;19908;-63
2022/07/15 00:06:28;;;;;;;;;;;;;;;;;;5094320;28;19915;-64
2022/07/15 00:08:54;;;;;;;;;;;;;;;;;;5094362;28;19916;-63
2022/07/15 00:11:20;;;;;;;;;;;;;;;;;;5094581;28;19943;-63
2022/07/15 00:13:46;;;;;;;;;;;;;;;;;;5094477;28;19963;-64
2022/07/15 00:16:13;;;;;;;;;;;;;;;;;;5094253;28;19908;-64
2022/07/15 00:18:39;;;;;;;;;;;;;;;;;;5094516;28;20324;-64
2022/07/15 00:21:05;;;;;;;;;;;;;;;;;;5094285;28;19908;-66
2022/07/15 00:23:31;;;;;;;;;;;;;;;;;;5094129;28;20281;-66
2022/07/15 00:25:57;;;;;;;;;;;;;;;;;;5094395;28;19908;-64
2022/07/15 00:28:24;;;;;;;;;;;;;;;;;;5094098;28;20358;-64
2022/07/15 00:30:50;;;;;;;;;;;;;;;;;;5094039;28;19998;-64
2022/07/15 00:33:15;;;;;;;;;;;;;;;;;;5094185;28;20079;-65
2022/07/15 00:35:41;;;;;;;;;;;;;;;;;;5093939;28;19914;-65
2022/07/15 00:38:07;;;;;;;;;;;;;;;;;;5094196;28;19908;-65
2022/07/15 00:40:33;;;;;;;;;;;;;;;;;;5093946;28;19912;-65
2022/07/15 00:42:59;;;;;;;;;;;;;;;;;;5093822;28;19912;-65
2022/07/15 00:45:25;;;;;;;;;;;;;;;;;;5093775;28;19943;-65
2022/07/15 00:47:51;;;;;;;;;;;;;;;;;;5093557;28;19916;-64
2022/07/15 00:50:17;;;;;;;;;;;;;;;;;;5093747;28;19954;-65
2022/07/15 00:52:43;;;;;;;;;;;;;;;;;;5093449;28;20393;-64
2022/07/15 00:55:08;;;;;;;;;;;;;;;;;;5094012;28;19907;-64
2022/07/15 00:57:35;;;;;;;;;;;;;;;;;;5093963;28;19908;-64
2022/07/15 01:00:00;;;;;;;;;;;;;;;;;;5093984;28;20290;-65
2022/07/15 01:02:26;;;;;;;;;;;;;;;;;;5093629;28;19908;-65
2022/07/15 01:04:52;;;;;;;;;;;;;;;;;;5093634;28;19915;-65
2022/07/15 01:07:18;;;;;;;;;;;;;;;;;;5093577;28;20286;-64
2022/07/15 01:09:44;;;;;;;;;;;;;;;;;;5093864;28;20053;-65
2022/07/15 01:12:11;;;;;;;;;;;;;;;;;;5093623;28;20351;-65
2022/07/15 01:14:36;;;;;;;;;;;;;;;;;;5093559;28;19959;-64
2022/07/15 01:17:02;;;;;;;;;;;;;;;;;;5093524;28;19912;-64
2022/07/15 01:19:28;;;;;;;;;;;;;;;;;;5093505;28;20378;-65
2022/07/15 01:21:54;;;;;;;;;;;;;;;;;;5093437;28;19915;-65
2022/07/15 01:24:20;;;;;;;;;;;;;;;;;;5093745;28;19909;-65
2022/07/15 01:26:47;;;;;;;;;;;;;;;;;;5093660;28;19908;-65
2022/07/15 01:29:13;;;;;;;;;;;;;;;;;;5093642;28;19908;-65
2022/07/15 01:31:39;;;;;;;;;;;;;;;;;;5093639;28;19915;-65
2022/07/15 01:34:05;;;;;;;;;;;;;;;;;;5093558;28;20385;-65
2022/07/15 01:36:31;;;;;;;;;;;;;;;;;;5093312;28;19908;-64
2022/07/15 01:38:57;;;;;;;;;;;;;;;;;;5092039;28;20407;-64
2022/07/15 01:41:23;;;;;;;;;;;;;;;;;;5093621;28;19912;-64
2022/07/15 01:43:49;;;;;;;;;;;;;;;;;;5093562;28;19908;-64
2022/07/15 01:46:15;;;;;;;;;;;;;;;;;;5093292;28;19915;-64
2022/07/15 01:51:26;;;;;;;;;;;;;;;;;;5093068;28;19991;-64
2022/07/15 01:53:52;;;;;;;;;;;;;;;;;;5092935;28;20012;-64
2022/07/15 01:56:18;;;;;;;;;;;;;;;;;;5093450;28;20384;-64
2022/07/15 01:58:44;;;;;;;;;;;;;;;;;;5093408;28;19908;-64
2022/07/15 02:01:10;;;;;;;;;;;;;;;;;;5095743;28;19908;-65
2022/07/15 02:03:36;;;;;;;;;;;;;;;;;;5097066;28;19915;-65
2022/07/15 02:06:02;;;;;;;;;;;;;;;;;;5096754;28;20263;-65
2022/07/15 02:08:28;;;;;;;;;;;;;;;;;;5096963;28;19912;-65
2022/07/15 02:10:54;;;;;;;;;;;;;;;;;;5096581;28;19912;-64
2022/07/15 02:13:21;;;;;;;;;;;;;;;;;;5096778;28;19912;-65
2022/07/15 02:15:47;;;;;;;;;;;;;;;;;;5096803;28;19908;-65
2022/07/15 02:18:13;;;;;;;;;;;;;;;;;;5096784;28;20026;-64
2022/07/15 02:20:39;;;;;;;;;;;;;;;;;;5096477;28;19914;-65
2022/07/15 02:23:05;;;;;;;;;;;;;;;;;;5096685;28;19943;-64
2022/07/15 02:25:30;;;;;;;;;;;;;;;;;;5096355;28;19908;-64
2022/07/15 02:27:56;;;;;;;;;;;;;;;;;;5096346;28;19908;-65
2022/07/15 02:30:22;;;;;;;;;;;;;;;;;;5096248;28;19908;-65
2022/07/15 02:32:48;;;;;;;;;;;;;;;;;;5096133;28;19982;-64
2022/07/15 02:35:14;;;;;;;;;;;;;;;;;;5096170;28;19912;-65
2022/07/15 02:37:41;;;;;;;;;;;;;;;;;;5096447;28;19908;-65
2022/07/15 02:40:08;;;;;;;;;;;;;;;;;;5096360;28;19961;-64
2022/07/15 02:42:34;;;;;;;;;;;;;;;;;;5096308;28;19908;-65
2022/07/15 02:45:00;;;;;;;;;;;;;;;;;;5096015;28;19920;-65
2022/07/15 02:47:26;;;;;;;;;;;;;;;;;;5095923;28;20393;-65
2022/07/15 02:49:51;;;;;;;;;;;;;;;;;;5096173;28;19939;-65
2022/07/15 02:52:17;;;;;;;;;;;;;;;;;;5095519;28;19908;-64
2022/07/15 02:54:43;;;;;;;;;;;;;;;;;;5095817;28;20427;-65
2022/07/15 02:57:09;;;;;;;;;;;;;;;;;;5095793;28;19954;-65
2022/07/15 02:59:35;;;;;;;;;;;;;;;;;;5095694;28;19914;-65
2022/07/15 03:02:01;;;;;;;;;;;;;;;;;;5095929;28;19915;-64
2022/07/15 03:04:27;;;;;;;;;;;;;;;;;;5094357;28;19990;-64
2022/07/15 03:06:53;;;;;;;;;;;;;;;;;;5095830;28;19957;-64
2022/07/15 03:09:19;;;;;;;;;;;;;;;;;;5095807;28;19908;-65
2022/07/15 03:11:45;;;;;;;;;;;;;;;;;;5095724;28;19913;-64
2022/07/15 03:14:11;;;;;;;;;;;;;;;;;;5095437;28;19912;-65
2022/07/15 03:16:37;;;;;;;;;;;;;;;;;;5095440;28;19908;-65
2022/07/15 03:19:03;;;;;;;;;;;;;;;;;;5095272;28;19912;-65
2022/07/15 03:21:29;;;;;;;;;;;;;;;;;;5095303;28;20332;-64
2022/07/15 03:23:55;;;;;;;;;;;;;;;;;;5095481;28;19908;-64
2022/07/15 03:26:20;;;;;;;;;;;;;;;;;;5095170;28;19908;-65
2022/07/15 03:28:46;;;;;;;;;;;;;;;;;;5093832;28;19908;-65
2022/07/15 03:31:12;;;;;;;;;;;;;;;;;;5095376;28;19908;-65
2022/07/15 03:33:38;;;;;;;;;;;;;;;;;;5095274;28;20415;-65
2022/07/15 03:36:05;;;;;;;;;;;;;;;;;;5095299;28;19908;-65
2022/07/15 03:38:31;;;;;;;;;;;;;;;;;;5094959;28;19908;-64
2022/07/15 03:40:57;;;;;;;;;;;;;;;;;;5094906;28;20398;-64
2022/07/15 03:43:26;;;;;;;;;;;;;;;;;;5094834;28;19912;-64
2022/07/15 03:45:52;;;;;;;;;;;;;;;;;;5095040;28;20366;-64
2022/07/15 03:48:18;;;;;;;;;;;;;;;;;;5094761;28;19908;-64
2022/07/15 03:50:44;;;;;;;;;;;;;;;;;;5094754;28;19908;-64
2022/07/15 03:53:10;;;;;;;;;;;;;;;;;;5094432;28;20366;-64
2022/07/15 03:55:37;;;;;;;;;;;;;;;;;;5094940;28;19915;-64
2022/07/15 03:58:03;;;;;;;;;;;;;;;;;;5094835;28;20411;-64
2022/07/15 04:00:29;;;;;;;;;;;12.50;99.90;;;;;;5094541;28;19908;-64
2022/07/15 04:02:54;;;;;;;;;;;12.50;99.90;;;;;;5094743;28;20429;-64
2022/07/15 04:05:20;;;;;;;;;;;12.40;99.90;;;;;;5094472;28;19914;-64
2022/07/15 04:07:46;;;;;;;;;;;12.40;99.90;;;;;;5094654;28;19908;-64
2022/07/15 04:10:12;;;;;;;;;;;12.50;99.90;;;;;;5094373;28;19915;-64
2022/07/15 04:12:38;;;;;;;;;;;12.40;99.90;;;;;;5094315;28;21875;-65
2022/07/15 04:15:04;;;;;;;;;;;12.50;99.90;;;;;;5094518;28;19943;-65
2022/07/15 04:17:29;;;;;;;;;;;12.50;99.90;;;;;;5094161;28;19908;-65
2022/07/15 04:19:54;;;;;;;;;;;12.50;99.90;;;;;;5094171;28;20387;-65
2022/07/15 04:22:20;;;;;;;;;;;12.60;99.90;;;;;;5094034;28;19908;-64
2022/07/15 04:24:45;;;;;;;;;;;12.60;99.90;;;;;;5093772;28;19958;-65
2022/07/15 04:27:11;;;;;;;;;;;12.70;99.90;;;;;;5109777;28;20011;-65
2022/07/15 04:29:36;;;;;;;;;;;12.70;99.90;;;;;;5094299;28;20369;-65
2022/07/15 04:32:02;;;;;;;;;;;12.70;99.90;;;;;;5094295;28;19912;-65
2022/07/15 04:34:28;;;;;;;;;;;12.90;99.90;;;;;;5093868;28;20003;-65
2022/07/15 04:36:53;;;;;;;;;;;13.00;99.90;;;;;;5093916;28;19931;-65
2022/07/15 04:39:19;;;;;;;;;;;13.10;99.90;;;;;;5094180;28;19915;-65
2022/07/15 04:41:44;;;;;;;;;;;13.20;99.90;;;;;;5093926;28;20378;-65
2022/07/15 04:44:10;;;;;;;;;;;13.50;99.90;;;;;;5093801;28;19936;-65
2022/07/15 04:46:36;;;;;;;;;;;;;;;;;;5093767;28;20028;-66
2022/07/15 04:51:46;;;;;;;;;;;16.30;99.90;;;;;;5093480;28;19915;-66
2022/07/15 04:54:12;;;;;;;;;;;16.80;99.90;;;;;;5093458;28;20015;-65
2022/07/15 04:56:37;;;;;;;;;;;17.10;99.90;;;;;;5093874;28;19915;-66
2022/07/15 04:59:03;;;;;;;;;;;17.70;99.90;;;;;;5093604;28;19912;-66
2022/07/15 05:01:28;;;;;;;;;;;18.10;99.90;;;;;;5093824;28;19908;-66
2022/07/15 05:03:54;;;;;;;;;;;18.50;99.90;;;;;;5093555;28;20294;-66
2022/07/15 05:06:19;;;;;;;;;;;18.60;99.90;;;;;;5093614;28;20046;-66
2022/07/15 05:08:45;;;;;;;;;;;18.70;99.90;;;;;;5093833;28;19908;-66
2022/07/15 05:11:10;;;;;;;;;;;19.10;99.90;;;;;;5093608;28;19908;-66
2022/07/15 05:13:37;;;;;;;;;;;19.20;99.90;;;;;;5093389;28;19912;-66
2022/07/15 05:16:02;;;;;;;;;;;19.10;99.90;;;;;;5093776;28;20018;-66
2022/07/15 05:18:28;;;;;;;;;;;18.70;99.90;;;;;;5093464;28;20390;-66
2022/07/15 05:20:53;;;;;;;;;;;18.30;99.90;;;;;;5093434;28;19995;-66
2022/07/15 05:23:19;;;;;;;;;;;17.50;99.90;;;;;;5093494;28;19915;-66
2022/07/15 05:25:45;;;;;;;;;;;17.50;99.90;;;;;;5093694;28;19915;-66
2022/07/15 05:28:11;;;;;;;;;;;17.00;99.90;;;;;;5093785;28;19908;-66
2022/07/15 05:30:37;;;;;;;;;;;17.40;99.90;;;;;;5093693;28;19935;-66
2022/07/15 05:33:03;;;;;;;;;;;18.20;99.90;;;;;;5093554;28;20335;-66
2022/07/15 05:35:28;;;;;;;;;;;18.70;99.90;;;;;;5094125;28;19908;-66
2022/07/15 05:37:54;;;;;;;;;;;19.60;99.90;;;;;;5097591;28;19912;-66
2022/07/15 05:40:19;;;;;;;;;;;20.00;99.90;;;;;;5099732;28;20255;-66
2022/07/15 05:42:46;;;;;;;;;;;20.70;99.90;;;;;;5102199;28;19911;-66
2022/07/15 05:45:12;;;;;;;;;;;20.70;99.90;;;;;;5106828;28;19908;-66
2022/07/15 05:47:37;;;;;;;;;;;20.20;99.90;;;;;;5106915;28;20641;-66
2022/07/15 05:50:03;;;;;;;;;;;19.80;99.90;;;;;;5107420;28;20377;-66
2022/07/15 05:52:29;;;;;;;;;;;20.20;99.90;;;;;;5105032;28;19976;-67
2022/07/15 05:54:54;;;;;;;;;;;20.80;99.90;;;;;;5104210;28;20428;-66
2022/07/15 05:57:20;;;;;;;;;;;21.10;99.90;;;;;;5096847;28;20419;-66
2022/07/15 05:59:45;;;;;;;;;;;21.60;99.90;;;;;;5097055;28;19908;-66
2022/07/15 06:02:13;;;;;;;;;;;22.20;99.90;;;;;;5096804;28;19908;-66
2022/07/15 06:04:39;;;;;;;;;;;22.50;99.70;;;;;;5096967;28;19908;-66
2022/07/15 06:07:05;;;;;;;;;;;23.10;98.00;;;;;;5096955;28;19915;-65
2022/07/15 06:09:30;;;;;;;;;;;22.80;97.40;;;;;;5096957;28;20296;-67
2022/07/15 06:11:56;;;;;;;;;;;22.80;98.10;;;;;;5096620;28;19915;-66
2022/07/15 06:14:21;;;;;;;;;;;23.00;96.80;;;;;;5096784;28;20339;-67
2022/07/15 06:16:47;;;;;;;;;;;23.10;96.70;;;;;;5094560;28;19919;-67
2022/07/15 06:19:12;;;;;;;;;;;23.30;95.90;;;;;;5096526;28;19919;-67
2022/07/15 06:21:38;;;;;;;;;;;22.70;97.00;;;;;;5089622;28;19919;-67
2022/07/15 06:24:04;;;;;;;;;;;23.10;96.10;;;;;;5076078;28;19908;-67
2022/07/15 06:26:29;;;;;;;;;;;23.20;96.00;;;;;;5074621;28;19909;-67
2022/07/15 06:28:54;;;;;;;;;;;22.40;95.30;;;;;;5077248;28;20006;-67
2022/07/15 06:31:20;;;;;;;;;;;23.20;94.10;;;;;;5076039;28;19909;-67
2022/07/15 06:33:45;;;;;;;;;;;23.70;93.60;;;;;;5075756;28;19951;-66
2022/07/15 06:36:11;;;;;;;;;;;24.10;91.10;;;;;;5084318;28;19912;-67
2022/07/15 06:38:36;;;;;;;;;;;24.40;89.20;;;;;;5096000;28;19950;-67
2022/07/15 06:41:02;;;;;;;;;;;23.40;91.20;;;;;;5096258;28;19921;-67
2022/07/15 06:43:27;;;;;;;;;;;23.20;91.20;;;;;;5096097;28;19908;-67
2022/07/15 06:45:53;;;;;;;;;;;23.30;91.50;;;;;;5095801;28;20324;-67
2022/07/15 06:48:18;;;;;;;;;;;23.50;90.10;;;;;;5095010;28;19920;-67
2022/07/15 06:50:44;;;;;;;;;;;23.10;89.40;;;;;;5100151;28;19915;-66
2022/07/15 06:53:09;;;;;;;;;;;23.30;88.40;;;;;;5103657;28;20295;-68
2022/07/15 06:55:35;;;;;;;;;;;23.20;90.40;;;;;;5108813;28;19947;-67
2022/07/15 06:58:00;;;;;;;;;;;23.00;91.10;;;;;;5107728;28;19938;-67
2022/07/15 07:00:26;;;;;;;;;;;23.00;90.50;;;;;;5097586;28;19919;-67
2022/07/15 07:02:51;;;;;;;;;;;22.70;91.10;;;;;;5096842;28;20328;-68
2022/07/15 07:05:17;;;;;;;;;;;21.70;92.80;;;;;;5103099;28;19966;-67
2022/07/15 07:07:43;;;;;;;;;;;21.60;94.00;;;;;;5115725;28;19963;-67
2022/07/15 07:10:08;;;;;;;;;;;20.80;95.70;;;;;;5096122;28;19912;-68
2022/07/15 07:12:34;;;;;;;;;;;20.80;96.60;;;;;;5093931;28;19908;-67
2022/07/15 07:15:01;;;;;;;;;;;21.00;96.60;;;;;;5094468;28;20320;-67
2022/07/15 07:17:27;;;;;;;;;;;21.60;96.20;;;;;;5127947;27;19914;-67
2022/07/15 07:19:53;;;;;;;;;;;22.10;95.00;;;;;;5094487;28;19959;-67
2022/07/15 07:22:18;;;;;;;;;;;22.40;94.80;;;;;;5089813;28;19919;-67
2022/07/15 07:24:44;;;;;;;;;;;21.50;95.90;;;;;;5086978;28;19957;-67
2022/07/15 07:27:10;;;;;;;;;;;21.70;96.40;;;;;;5094579;28;20041;-67
2022/07/15 07:29:35;;;;;;;;;;;22.00;95.60;;;;;;5095153;28;19943;-67
2022/07/15 07:32:02;;;;;;;;;;;21.60;95.00;;;;;;5094075;28;19919;-67
2022/07/15 07:34:27;;;;;;;;;;;21.20;96.90;;;;;;5094558;28;19912;-67
2022/07/15 07:36:53;;;;;;;;;;;20.40;99.00;;;;;;5090384;28;20393;-66
2022/07/15 07:39:18;;;;;;;;;;;20.30;99.70;;;;;;5096458;28;20389;-67
2022/07/15 07:41:44;;;;;;;;;;;20.00;99.50;;;;;;5093334;28;19992;-67
2022/07/15 07:44:09;;;;;;;;;;;20.20;99.70;;;;;;5109068;28;19908;-67
2022/07/15 07:46:35;;;;;;;;;;;20.10;99.90;;;;;;5093367;28;20007;-67
2022/07/15 07:49:00;;;;;;;;;;;20.10;99.80;;;;;;5114665;28;19931;-67
2022/07/15 07:51:26;;;;;;;;;;;20.50;99.00;;;;;;5102256;28;19912;-67
2022/07/15 07:53:51;;;;;;;;;;;19.90;99.70;;;;;;5085049;28;19924;-67
2022/07/15 07:56:17;;;;;;;;;;;20.20;99.80;;;;;;5111563;28;20298;-68
2022/07/15 07:58:43;;;;;;;;;;;19.50;99.90;;;;;;5091365;28;19917;-67
2022/07/15 08:01:08;;;;;;;;;;;18.90;99.90;;;;;;5088584;28;19968;-67
2022/07/15 08:03:34;;;;;;;;;;;18.80;99.90;;;;;;5094674;28;19909;-67
2022/07/15 08:05:59;;;;;;;;;;;19.10;99.90;;;;;;5095735;28;20363;-67
2022/07/15 08:08:25;;;;;;;;;;;19.10;99.90;;;;;;5094599;28;19915;-67
2022/07/15 08:10:52;;;;;;;;;;;19.10;99.90;;;;;;5107659;28;20289;-67
2022/07/15 08:13:18;;;;;;;;;;;19.50;99.90;;;;;;5079486;28;19922;-67
2022/07/15 08:15:43;;;;;;;;;;;19.40;99.90;;;;;;5099900;28;20285;-67
2022/07/15 08:18:09;;;;;;;;;;;19.60;99.90;;;;;;5114606;28;19908;-67
2022/07/15 08:20:35;;;;;;;;;;;21.00;99.90;;;;;;5113205;28;20373;-67
2022/07/15 08:23:01;;;;;;;;;;;21.40;97.90;;;;;;5110059;28;19919;-68
2022/07/15 08:25:27;;;;;;;;;;;21.20;98.00;;;;;;5097609;28;20271;-67
2022/07/15 08:27:53;;;;;;;;;;;21.00;97.50;;;;;;5092434;28;20003;-67
2022/07/15 08:30:19;;;;;;;;;;;20.50;98.90;;;;;;5094038;28;19995;-67
2022/07/15 08:32:44;;;;;;;;;;;19.80;99.90;;;;;;5091347;28;19951;-67
2022/07/15 08:35:10;;;;;;;;;;;19.60;99.90;;;;;;5093375;28;19908;-66
2022/07/15 08:37:36;;;;;;;;;;;19.20;99.90;;;;;;5096000;28;19912;-67
2022/07/15 08:40:02;;;;;;;;;;;19.00;99.90;;;;;;5093713;28;19915;-67
2022/07/15 08:42:28;;;;;;;;;;;19.30;99.90;;;;;;5093600;28;19908;-67
2022/07/15 08:44:54;;;;;;;;;;;20.30;99.90;;;;;;5081764;28;19956;-68
2022/07/15 08:47:22;;;;;;;;;;;21.20;98.70;;;;;;5073553;28;20007;-67
2022/07/15 08:49:48;;;;;;;;;;;20.90;98.80;;;;;;5105129;28;19912;-67
2022/07/15 08:52:15;;;;;;;;;;;21.50;98.00;;;;;;5100624;28;19912;-67
2022/07/15 08:54:41;;;;;;;;;;;21.50;96.90;;;;;;5111588;28;19976;-67
2022/07/15 08:57:06;;;;;;;;;;;22.10;95.90;;;;;;5112138;28;19912;-67
2022/07/15 08:59:32;;;;;;;;;;;22.40;94.60;;;;;;5074546;28;19919;-66
2022/07/15 09:01:59;;;;;;;;;;;22.90;95.00;;;;;;5082413;28;19911;-67
2022/07/15 09:04:24;;;;;;;;;;;23.60;93.60;;;;;;5114103;28;19908;-67
2022/07/15 09:06:51;;;;;;;;;;;23.80;92.00;;;;;;5095503;28;20254;-67
2022/07/15 09:09:20;;;;;;;;;;;24.10;91.50;;;;;;5095869;28;19912;-67
2022/07/15 09:12:05;;;;;;;;;;;23.70;91.10;;;;;;5092594;28;19912;-66
2022/07/15 09:14:32;;;;;;;;;;;23.10;92.00;;;;;;5090010;28;19924;-67
2022/07/15 09:17:14;;;;;;;;;;;23.30;90.90;;;;;;5092346;28;19912;-68
2022/07/15 09:22:52;;;;;;;;;;;21.50;94.60;;;;;;5051338;28;19924;-68
2022/07/15 09:25:18;;;;;;;;;;;21.50;94.70;;;;;;5046092;28;19913;-68
2022/07/15 09:27:44;;;;;;;;;;;21.10;95.30;;;;;;5050195;28;19913;-68
2022/07/15 09:33:47;;;;;;;;;;;20.60;97.00;;;;;;5044748;28;19913;-68
2022/07/15 09:36:06;;;;;;;;;;;22.50;93.50;;;;;;5041699;28;19959;-69
2022/07/15 09:38:34;;;;;;;;;;;23.40;90.90;;;;;;5050134;28;19913;-68
2022/07/15 09:41:01;;;;;;;;;;;22.90;92.20;;;;;;5050127;28;19917;-68
2022/07/15 09:43:27;;;;;;;;;;;23.40;91.00;;;;;;5050751;28;19955;-68
2022/07/15 09:45:56;;;;;;;;;;;23.20;91.20;;;;;;5050490;28;19909;-69
2022/07/15 09:48:21;;;;;;;;;;;23.80;91.10;;;;;;5050053;28;20280;-68
2022/07/15 09:50:48;;;;;;;;;;;24.40;87.70;;;;;;5059726;28;19913;-68
2022/07/15 09:53:14;;;;;;;;;;;24.70;85.40;;;;;;5071891;28;20387;-68
2022/07/15 09:55:40;;;;;;;;;;;24.20;85.80;;;;;;5050921;28;19998;-69
2022/07/15 09:58:07;;;;;;;;;;;24.80;83.60;;;;;;5058643;28;19924;-65
2022/07/15 10:00:33;;;;;;;;;;;25.60;80.60;;;;;;5064448;28;19920;-65
2022/07/15 10:03:00;;;;;;;;;;;26.10;78.10;;;;;;5056458;28;20291;-66
2022/07/15 10:05:27;;;;;;;;;;;26.40;72.70;;;;;;5050270;28;19913;-65
2022/07/15 10:07:56;;;;;;;;;;;26.00;74.80;;;;;;5050132;28;20360;-66
2022/07/15 10:10:22;;;;;;;;;;;23.80;79.90;;;;;;5054749;28;20291;-65
2022/07/15 10:12:58;;;;;;;;;;;22.80;81.90;;;;;;5064138;28;20331;-65
2022/07/15 10:15:33;;;;;;;;;;;22.50;85.50;;;;;;5054070;28;19932;-66
2022/07/15 10:18:06;;;;;;;;;;;22.50;85.70;;;;;;5049249;28;19909;-66
2022/07/15 10:20:51;;;;;;;;;;;22.00;85.50;;;;;;5055960;28;19921;-66
2022/07/15 10:23:37;;;;;;;;;;;21.70;86.80;;;;;;5070674;28;20460;-67
2022/07/15 10:26:12;;;;;;;;;;;22.80;85.00;;;;;;5069473;28;20354;-66
2022/07/15 10:28:48;;;;;;;;;;;22.50;82.90;;;;;;5072332;28;20379;-66
2022/07/15 10:31:21;;;;;;;;;;;21.90;84.60;;;;;;5049690;28;19909;-66
2022/07/15 10:34:04;;;;;;;;;;;21.60;89.00;;;;;;5055281;28;19949;-66
2022/07/15 10:36:51;;;;;;;;;;;21.70;90.00;;;;;;5054807;28;19919;-66
2022/07/15 10:39:17;;;;;;;;;;;21.40;90.00;;;;;;5055524;28;19921;-66
2022/07/15 10:42:02;;;;;;;;;;;22.00;88.60;;;;;;5058731;28;20453;-67
2022/07/15 10:44:29;;;;;;;;;;;22.80;84.10;;;;;;5071833;28;20397;-66
2022/07/15 10:47:15;;;;;;;;;;;23.00;80.70;;;;;;5056720;28;19912;-67
2022/07/15 10:49:41;;;;;;;;;;;22.50;82.30;;;;;;5054766;28;19938;-67
2022/07/15 11:00:22;;;;;;;;;;;21.50;86.40;;;;;;5093871;27;19917;-66
2022/07/15 11:03:08;;;;;;;;;;;21.40;88.00;;;;;;5070899;28;19920;-66
2022/07/15 11:05:34;;;;;;;;;;;21.20;88.30;;;;;;5072038;28;19915;-66
2022/07/15 11:08:00;;;;;;;;;;;20.80;89.20;;;;;;5070715;28;19917;-66
2022/07/15 11:10:25;;;;;;;;;;;21.00;90.10;;;;;;5082385;28;19918;-66
2022/07/15 11:15:29;;;;;;;;;;;21.00;87.70;;;;;;5088282;27;19916;-64
2022/07/15 11:17:56;;;;;;;;;;;20.80;88.90;;;;;;5070747;28;20335;-64
2022/07/15 11:20:23;;;;;;;;;;;21.00;89.40;;;;;;5071457;28;19916;-64
2022/07/15 11:22:50;;;;;;;;;;;21.10;88.80;;;;;;5071281;28;19912;-64
2022/07/15 11:25:17;;;;;;;;;;;21.00;88.20;;;;;;5067743;28;20007;-65
2022/07/15 11:27:53;;;;;;;;;;;20.80;89.70;;;;;;5070588;28;19936;-64
2022/07/15 11:30:19;;;;;;;;;;;20.90;89.40;;;;;;5070782;28;19913;-64
2022/07/15 11:32:45;;;;;;;;;;;20.70;90.00;;;;;;5071868;28;20383;-64
2022/07/15 11:35:11;;;;;;;;;;;20.60;90.00;;;;;;5067513;28;20252;-64
2022/07/15 11:37:36;;;;;;;;;;;20.90;89.10;;;;;;5071548;28;19919;-65
2022/07/15 11:40:11;;;;;;;;;;;21.10;88.20;;;;;;5070379;28;19916;-64
2022/07/15 11:45:38;;;;;;;;;;;21.50;87.80;;;;;;5070206;28;19913;-64
2022/07/15 11:48:06;;;;;;;;;;;21.80;85.40;;;;;;5067727;28;19916;-65
2022/07/15 11:50:32;;;;;;;;;;;21.90;84.60;;;;;;5065824;28;19912;-66
2022/07/15 11:52:58;;;;;;;;;;;22.10;85.50;;;;;;5069840;28;19916;-65
2022/07/15 11:55:23;;;;;;;;;;;22.20;84.40;;;;;;5070251;28;19917;-64
2022/07/15 11:57:51;;;;;;;;;;;22.30;81.50;;;;;;5071208;28;19956;-65
2022/07/15 12:00:16;;;;;;;;;;;22.40;81.50;;;;;;5070317;28;20459;-64
2022/07/15 12:02:42;;;;;;;;;;;22.60;82.10;;;;;;5069866;28;19971;-64
2022/07/15 12:05:08;;;;;;;;;;;22.60;81.00;;;;;;5071497;28;19955;-64
2022/07/15 12:07:41;;;;;;;;;;;22.00;81.90;;;;;;5068293;28;19912;-65
2022/07/15 12:10:08;;;;;;;;;;;22.00;83.40;;;;;;5082124;28;19966;-65
2022/07/15 12:12:33;;;;;;;;;;;22.00;83.50;;;;;;5069132;28;19920;-65
2022/07/15 12:15:00;;;;;;;;;;;22.10;84.00;;;;;;5085765;28;20018;-65
2022/07/15 12:17:25;;;;;;;;;;;22.30;83.40;;;;;;5090018;28;20003;-65
2022/07/15 12:19:53;;;;;;;;;;;22.80;82.10;;;;;;5091064;28;20006;-65
2022/07/15 12:22:20;;;;;;;;;;;23.30;79.90;;;;;;5090125;28;19908;-65
2022/07/15 12:24:51;;;;;;;;;;;22.80;80.00;;;;;;5087990;28;19959;-65
2022/07/15 12:27:16;;;;;;;;;;;21.80;81.70;;;;;;5076421;28;20002;-65
2022/07/15 12:29:43;;;;;;;;;;;22.10;81.40;;;;;;5086114;28;20397;-65
2022/07/15 12:32:09;;;;;;;;;;;22.60;81.30;;;;;;5096762;28;19915;-65
2022/07/15 12:34:52;;;;;;;;;;;23.30;78.50;;;;;;5096355;28;19912;-66
2022/07/15 12:37:19;;;;;;;;;;;23.60;76.60;;;;;;5078347;28;19908;-65
2022/07/15 12:40:05;;;;;;;;;;;22.90;77.30;;;;;;5095721;28;19919;-65
2022/07/15 12:42:32;;;;;;;;;;;23.30;76.90;;;;;;5087505;28;19919;-65
2022/07/15 12:45:17;;;;;;;;;;;24.30;76.00;;;;;;5076117;28;19915;-65
2022/07/15 12:48:03;;;;;;;;;;;24.00;74.50;;;;;;5075455;28;20363;-66
2022/07/15 12:50:29;;;;;;;;;;;23.90;71.90;;;;;;5095925;28;19908;-65
2022/07/15 12:52:56;;;;;;;;;;;23.60;74.20;;;;;;5096203;28;19917;-66
2022/07/15 12:55:23;;;;;;;;;;;23.50;74.70;;;;;;5085740;28;20370;-65
2022/07/15 12:57:49;;;;;;;;;;;23.40;74.10;;;;;;5076121;28;20334;-66
2022/07/15 13:00:16;;;;;;;;;;;23.50;74.90;;;;;;5075555;28;19939;-65
2022/07/15 13:03:01;;;;;;;;;;;23.20;73.60;;;;;;5075651;28;19996;-65
2022/07/15 13:05:28;;;;;;;;;;;23.30;75.10;;;;;;5085943;28;19912;-65
2022/07/15 13:07:54;;;;;;;;;;;23.00;74.40;;;;;;5096062;28;19962;-65
2022/07/15 13:10:19;;;;;;;;;;;23.10;75.00;;;;;;5077701;28;19932;-65
2022/07/15 13:12:45;;;;;;;;;;;22.70;75.50;;;;;;5095992;28;19915;-64
2022/07/15 13:15:11;;;;;;;;;;;22.50;76.90;;;;;;5090739;28;20442;-65
2022/07/15 13:17:36;;;;;;;;;;;22.00;75.80;;;;;;5076436;28;19908;-65
2022/07/15 13:20:04;;;;;;;;;;;22.30;79.20;;;;;;5076056;28;20015;-66
2022/07/15 13:22:31;;;;;;;;;;;22.20;78.30;;;;;;5074659;28;20401;-65
2022/07/15 13:24:56;;;;;;;;;;;22.40;76.10;;;;;;5088116;28;19969;-65
2022/07/15 13:27:22;;;;;;;;;;;22.80;77.80;;;;;;5095688;28;19912;-65
2022/07/15 13:29:47;;;;;;;;;;;22.90;77.20;;;;;;5083997;28;19909;-65
2022/07/15 13:32:12;;;;;;;;;;;23.00;75.70;;;;;;5075147;28;19915;-64
2022/07/15 13:34:38;;;;;;;;;;;22.90;76.60;;;;;;5084763;28;19916;-64
2022/07/15 13:37:04;;;;;;;;;;;23.00;76.10;;;;;;5094417;28;19908;-65
2022/07/15 13:39:29;;;;;;;;;;;22.90;76.70;;;;;;5094918;28;19972;-65
2022/07/15 13:41:55;;;;;;;;;;;23.00;76.20;;;;;;5085782;28;20011;-66
2022/07/15 13:44:20;;;;;;;;;;;23.20;74.40;;;;;;5075014;28;19954;-65
2022/07/15 13:46:46;;;;;;;;;;;23.30;72.80;;;;;;5074092;28;19913;-65
2022/07/15 13:49:11;;;;;;;;;;;23.30;72.80;;;;;;5074196;28;19936;-65
2022/07/15 13:51:40;;;;;;;;;;;23.00;74.20;;;;;;5073726;28;19916;-65
2022/07/15 13:54:06;;;;;;;;;;;23.10;74.10;;;;;;5088741;28;19923;-65
2022/07/15 13:56:32;;;;;;;;;;;23.00;74.40;;;;;;5074786;28;19938;-65
2022/07/15 13:58:59;;;;;;;;;;;22.80;76.20;;;;;;5070756;28;19912;-64
2022/07/15 14:01:26;;;;;;;;;;;23.00;75.10;;;;;;5054525;28;20340;-65
2022/07/15 14:03:51;;;;;;;;;;;23.20;74.60;;;;;;5058489;28;19954;-65
2022/07/15 14:06:17;;;;;;;;;;;22.90;73.80;;;;;;5072826;28;19963;-65
2022/07/15 14:08:42;;;;;;;;;;;22.90;75.30;;;;;;5077276;28;20565;-65
2022/07/15 14:11:08;;;;;;;;;;;22.80;74.70;;;;;;5081980;28;20006;-65
2022/07/15 14:13:33;;;;;;;;;;;22.40;75.20;;;;;;5073826;28;19967;-65
2022/07/15 14:15:59;;;;;;;;;;;22.50;76.60;;;;;;5074376;28;19987;-65
2022/07/15 14:18:42;;;;;;;;;;;22.50;76.50;;;;;;5076896;28;19912;-65
2022/07/15 14:21:08;;;;;;;;;;;22.80;76.90;;;;;;5087027;28;19958;-65
2022/07/15 14:23:34;;;;;;;;;;;22.60;73.10;;;;;;5074293;28;20359;-65
2022/07/15 14:26:00;;;;;;;;;;;22.40;75.00;;;;;;5072889;28;19966;-65
2022/07/15 14:28:25;;;;;;;;;;;22.40;75.60;;;;;;5077594;28;20312;-65
2022/07/15 14:30:51;;;;;;;;;;;22.10;76.60;;;;;;5090675;28;20382;-65
2022/07/15 14:33:16;;;;;;;;;;;22.40;77.00;;;;;;5075207;28;19913;-66
2022/07/15 14:35:42;;;;;;;;;;;22.50;76.40;;;;;;5073359;28;19915;-66
2022/07/15 14:38:07;;;;;;;;;;;22.60;75.20;;;;;;5073972;28;19909;-65
2022/07/15 14:40:33;;;;;;;;;;;22.70;75.90;;;;;;5074085;28;20409;-65
2022/07/15 14:42:58;;;;;;;;;;;22.70;76.00;;;;;;5073119;28;19959;-65
2022/07/15 14:45:24;;;;;;;;;;;22.80;74.40;;;;;;5089526;28;19912;-65
2022/07/15 14:47:49;;;;;;;;;;;22.80;75.50;;;;;;5080280;28;19913;-65
2022/07/15 14:50:15;;;;;;;;;;;22.60;75.30;;;;;;5072797;28;19912;-65
2022/07/15 14:52:40;;;;;;;;;;;22.50;75.50;;;;;;5073872;28;20046;-65
2022/07/15 14:55:06;;;;;;;;;;;22.50;75.40;;;;;;5072663;28;20011;-65
2022/07/15 14:57:32;;;;;;;;;;;22.50;75.90;;;;;;5055622;28;20367;-65
2022/07/15 14:59:57;;;;;;;;;;;22.50;75.90;;;;;;5072920;28;21363;-65
2022/07/15 15:02:24;;;;;;;;;;;22.60;76.00;;;;;;5073524;28;20414;-65
2022/07/15 15:04:49;;;;;;;;;;;22.60;76.10;;;;;;5072357;28;19909;-66
2022/07/15 15:07:15;;;;;;;;;;;22.50;75.80;;;;;;5072514;28;20004;-65
2022/07/15 15:09:41;;;;;;;;;;;22.30;76.40;;;;;;5072464;28;19919;-66
2022/07/15 15:12:06;;;;;;;;;;;22.00;77.00;;;;;;5073504;28;20279;-65
2022/07/15 15:14:32;;;;;;;;;;;22.10;77.90;;;;;;5073014;28;19920;-65
2022/07/15 15:16:57;;;;;;;;;;;22.20;76.40;;;;;;5070477;28;19916;-65